Time,TemperatureF,DewpointF,PressureIn,WindDirection,WindDirectionDegrees,WindSpeedMPH,WindSpeedGustMPH,Humidity,HourlyPrecipIn,Conditions,Clouds,dailyrainin,SoftwareType,DateUTC
2013-06-01 00:04:00,64.8,55.2,30.14,ESE,106,0.0,0.0,71,0.00,NA,NA,-99.99,VWS Version 10.38,2013-06-01 04:04:00,
2013-06-01 00:09:00,64.6,55.0,30.14,ESE,106,0.0,0.0,71,0.00,NA,NA,-99.99,VWS Version 10.38,2013-06-01 04:09:00,
2013-06-01 00:14:00,64.4,54.8,30.14,ESE,106,0.0,0.0,71,0.00,NA,NA,-99.99,VWS Version 10.38,2013-06-01 04:14:00,
2013-06-01 00:19:00,64.4,55.2,30.14,ESE,106,0.0,0.0,72,0.00,NA,NA,-99.99,VWS Version 10.38,2013-06-01 04:19:00,
2013-06-01 00:24:00,64.2,55.0,30.14,ESE,106,0.0,0.0,72,0.00,NA,NA,-99.99,VWS Version 10.38,2013-06-01 04:24:00,
2013-06-01 00:34:00,64.0,55.2,30.14,ESE,106,0.0,0.0,73,0.00,NA,NA,-99.99,VWS Version 10.38,2013-06-01 04:34:00,
2013-06-01 00:39:00,64.0,55.2,30.14,ESE,106,0.0,0.0,73,0.00,NA,NA,-99.99,VWS Version 10.38,2013-06-01 04:39:00,
2013-06-01 00:49:00,63.9,55.0,30.14,ESE,106,0.0,0.0,73,0.00,NA,NA,-99.99,VWS Version 10.38,2013-06-01 04:49:00,
2013-06-01 00:54:00,63.7,55.2,30.14,ESE,106,0.0,0.0,74,0.00,NA,NA,-99.99,VWS Version 10.38,2013-06-01 04:54:00,
2013-06-01 00:59:00,63.7,55.2,30.14,ESE,106,0.0,0.0,74,0.00,NA,NA,-99.99,VWS Version 10.38,2013-06-01 04:59:00,
2013-06-01 01:09:00,63.5,55.4,30.14,ESE,106,0.0,0.0,75,0.00,NA,NA,-99.99,VWS Version 10.38,2013-06-01 05:09:00,
2013-06-01 01:14:00,63.3,55.3,30.14,ESE,106,0.0,0.0,75,0.00,NA,NA,-99.99,VWS Version 10.38,2013-06-01 05:14:00,
2013-06-01 01:20:00,63.3,55.6,30.14,ESE,106,0.0,0.0,76,0.00,NA,NA,-99.99,VWS Version 10.38,2013-06-01 05:20:00,
2013-06-01 01:30:00,63.1,55.5,30.14,ESE,106,0.0,0.0,76,0.00,NA,NA,-99.99,VWS Version 10.38,2013-06-01 05:30:00,
2013-06-01 01:40:00,63.0,55.7,30.14,ESE,106,0.0,0.0,77,0.00,NA,NA,-99.99,VWS Version 10.38,2013-06-01 05:40:00,
2013-06-01 01:45:00,62.8,55.5,30.14,ESE,106,0.0,0.0,77,0.00,NA,NA,-99.99,VWS Version 10.38,2013-06-01 05:45:00,
2013-06-01 01:55:00,62.8,55.5,30.14,ESE,106,0.0,0.0,77,0.00,NA,NA,-99.99,VWS Version 10.38,2013-06-01 05:55:00,
2013-06-01 02:00:00,62.6,55.7,30.14,ESE,106,0.0,0.0,78,0.00,NA,NA,-99.99,VWS Version 10.38,2013-06-01 06:00:00,
2013-06-01 02:05:00,62.6,55.7,30.14,ESE,106,0.0,0.0,78,0.00,NA,NA,-99.99,VWS Version 10.38,2013-06-01 06:05:00,
2013-06-01 02:09:00,62.6,55.7,30.14,ESE,106,0.0,0.0,78,0.00,NA,NA,-99.99,VWS Version 10.38,2013-06-01 06:09:00,
2013-06-01 02:14:00,62.6,56.0,30.14,ESE,106,0.0,0.0,79,0.00,NA,NA,-99.99,VWS Version 10.38,2013-06-01 06:14:00,
2013-06-01 02:24:00,62.6,56.0,30.14,ESE,106,0.0,0.0,79,0.00,NA,NA,-99.99,VWS Version 10.38,2013-06-01 06:24:00,
2013-06-01 02:29:00,62.4,56.2,30.14,ESE,106,0.0,0.0,80,0.00,NA,NA,-99.99,VWS Version 10.38,2013-06-01 06:29:00,
2013-06-01 02:34:00,62.4,56.2,30.14,ESE,106,0.0,0.0,80,0.00,NA,NA,-99.99,VWS Version 10.38,2013-06-01 06:34:00,
2013-06-01 02:39:00,62.4,56.2,30.11,ESE,106,0.0,0.0,80,0.00,NA,NA,-99.99,VWS Version 10.38,2013-06-01 06:39:00,
2013-06-01 02:44:00,62.4,56.2,30.11,ESE,106,0.0,0.0,80,0.00,NA,NA,-99.99,VWS Version 10.38,2013-06-01 06:44:00,
2013-06-01 02:49:00,62.4,56.2,30.11,ESE,106,0.0,0.0,80,0.00,NA,NA,-99.99,VWS Version 10.38,2013-06-01 06:49:00,
2013-06-01 02:59:00,62.2,56.3,30.11,ESE,106,0.0,0.0,81,0.00,NA,NA,-99.99,VWS Version 10.38,2013-06-01 06:59:00,
2013-06-01 03:09:00,62.2,56.3,30.11,ESE,106,0.0,0.0,81,0.00,NA,NA,-99.99,VWS Version 10.38,2013-06-01 07:09:00,
2013-06-01 03:14:00,62.1,56.2,30.11,ESE,106,0.0,0.0,81,0.00,NA,NA,-99.99,VWS Version 10.38,2013-06-01 07:14:00,
2013-06-01 03:19:00,62.1,56.2,30.11,ESE,106,0.0,0.0,81,0.00,NA,NA,-99.99,VWS Version 10.38,2013-06-01 07:19:00,
2013-06-01 03:24:00,62.1,56.2,30.11,ESE,106,0.0,0.0,81,0.00,NA,NA,-99.99,VWS Version 10.38,2013-06-01 07:24:00,
2013-06-01 03:29:00,62.1,56.2,30.11,ESE,106,0.0,0.0,81,0.00,NA,NA,-99.99,VWS Version 10.38,2013-06-01 07:29:00,
2013-06-01 03:39:00,61.9,56.3,30.11,ESE,106,0.0,0.0,82,0.00,NA,NA,-99.99,VWS Version 10.38,2013-06-01 07:39:00,
2013-06-01 03:44:00,61.9,56.3,30.11,ESE,106,0.0,0.0,82,0.00,NA,NA,-99.99,VWS Version 10.38,2013-06-01 07:44:00,
2013-06-01 03:49:00,61.9,56.3,30.11,ESE,106,0.0,0.0,82,0.00,NA,NA,-99.99,VWS Version 10.38,2013-06-01 07:49:00,
2013-06-01 03:54:00,61.9,56.3,30.11,ESE,106,0.0,0.0,82,0.00,NA,NA,-99.99,VWS Version 10.38,2013-06-01 07:54:00,
2013-06-01 03:59:00,61.9,56.3,30.11,ESE,106,0.0,0.0,82,0.00,NA,NA,-99.99,VWS Version 10.38,2013-06-01 07:59:00,
2013-06-01 04:09:00,61.9,56.3,30.11,ESE,106,0.0,0.0,82,0.00,NA,NA,-99.99,VWS Version 10.38,2013-06-01 08:09:00,
2013-06-01 04:14:00,61.9,56.7,30.11,ESE,106,0.0,0.0,83,0.00,NA,NA,-99.99,VWS Version 10.38,2013-06-01 08:14:00,
2013-06-01 04:19:00,61.9,56.7,30.11,ESE,106,0.0,0.0,83,0.00,NA,NA,-99.99,VWS Version 10.38,2013-06-01 08:19:00,
2013-06-01 04:29:00,61.9,56.7,30.11,ESE,106,0.0,0.0,83,0.00,NA,NA,-99.99,VWS Version 10.38,2013-06-01 08:29:00,
2013-06-01 04:34:00,61.7,56.5,30.11,ESE,106,0.0,0.0,83,0.00,NA,NA,-99.99,VWS Version 10.38,2013-06-01 08:34:00,
2013-06-01 04:39:00,61.7,56.5,30.14,ESE,106,0.0,0.0,83,0.00,NA,NA,-99.99,VWS Version 10.38,2013-06-01 08:39:00,
2013-06-01 04:44:00,61.7,56.5,30.14,ESE,106,0.0,0.0,83,0.00,NA,NA,-99.99,VWS Version 10.38,2013-06-01 08:44:00,
2013-06-01 04:54:00,61.7,56.5,30.14,ESE,106,0.0,0.0,83,0.00,NA,NA,-99.99,VWS Version 10.38,2013-06-01 08:54:00,
2013-06-01 04:59:00,61.7,56.5,30.14,ESE,106,0.0,0.0,83,0.00,NA,NA,-99.99,VWS Version 10.38,2013-06-01 08:59:00,
2013-06-01 05:04:00,61.5,56.3,30.14,ESE,106,0.0,0.0,83,0.00,NA,NA,-99.99,VWS Version 10.38,2013-06-01 09:04:00,
2013-06-01 05:14:00,61.5,56.7,30.14,ESE,106,0.0,0.0,84,0.00,NA,NA,-99.99,VWS Version 10.38,2013-06-01 09:14:00,
2013-06-01 05:20:00,61.5,56.7,30.14,ESE,106,0.0,0.0,84,0.00,NA,NA,-99.99,VWS Version 10.38,2013-06-01 09:20:00,
2013-06-01 05:25:00,61.5,56.7,30.14,ESE,106,0.0,0.0,84,0.00,NA,NA,-99.99,VWS Version 10.38,2013-06-01 09:25:00,
2013-06-01 05:30:00,61.5,56.7,30.14,ESE,106,0.0,0.0,84,0.00,NA,NA,-99.99,VWS Version 10.38,2013-06-01 09:30:00,
2013-06-01 05:40:00,61.7,56.8,30.14,ESE,106,0.0,0.0,84,0.00,NA,NA,-99.99,VWS Version 10.38,2013-06-01 09:40:00,
2013-06-01 05:45:00,61.7,56.8,30.14,ESE,106,0.0,0.0,84,0.00,NA,NA,-99.99,VWS Version 10.38,2013-06-01 09:45:00,
2013-06-01 05:50:00,61.7,57.2,30.14,ESE,106,0.0,0.0,85,0.00,NA,NA,-99.99,VWS Version 10.38,2013-06-01 09:50:00,
2013-06-01 05:55:00,61.7,57.2,30.14,ESE,106,0.0,0.0,85,0.00,NA,NA,-99.99,VWS Version 10.38,2013-06-01 09:55:00,
2013-06-01 06:05:00,61.9,57.3,30.14,ESE,106,0.0,0.0,85,0.00,NA,NA,-99.99,VWS Version 10.38,2013-06-01 10:05:00,
2013-06-01 06:14:00,62.1,57.8,30.14,ESE,106,0.0,0.0,86,0.00,NA,NA,-99.99,VWS Version 10.38,2013-06-01 10:14:00,
2013-06-01 06:19:00,62.2,58.0,30.14,ESE,106,0.0,0.0,86,0.00,NA,NA,-99.99,VWS Version 10.38,2013-06-01 10:19:00,
2013-06-01 06:29:00,62.6,58.4,30.14,ESE,106,0.0,0.0,86,0.00,NA,NA,-99.99,VWS Version 10.38,2013-06-01 10:29:00,
2013-06-01 06:39:00,62.8,58.5,30.14,ESE,106,0.0,0.0,86,0.00,NA,NA,-99.99,VWS Version 10.38,2013-06-01 10:39:00,
2013-06-01 06:44:00,63.3,59.1,30.14,ESE,106,0.0,0.0,86,0.00,NA,NA,-99.99,VWS Version 10.38,2013-06-01 10:44:00,
2013-06-01 06:49:00,63.9,59.9,30.14,ESE,106,0.0,0.0,87,0.00,NA,NA,-99.99,VWS Version 10.38,2013-06-01 10:49:00,
2013-06-01 06:54:00,65.5,61.8,30.14,ESE,106,0.0,0.0,88,0.00,NA,NA,-99.99,VWS Version 10.38,2013-06-01 10:54:00,
2013-06-01 06:59:00,66.6,62.6,30.14,ESE,106,0.0,0.0,87,0.00,NA,NA,-99.99,VWS Version 10.38,2013-06-01 10:59:00,
2013-06-01 07:04:00,66.6,62.6,30.14,ESE,106,0.0,0.0,87,0.00,NA,NA,-99.99,VWS Version 10.38,2013-06-01 11:04:00,
2013-06-01 07:14:00,68.0,64.0,30.14,ESE,106,0.0,0.0,87,0.00,NA,NA,-99.99,VWS Version 10.38,2013-06-01 11:14:00,
2013-06-01 07:19:00,68.5,64.5,30.14,ESE,106,0.0,0.0,87,0.00,NA,NA,-99.99,VWS Version 10.38,2013-06-01 11:19:00,
2013-06-01 07:29:00,71.8,68.4,30.14,ESE,106,0.0,0.0,89,0.00,NA,NA,-99.99,VWS Version 10.38,2013-06-01 11:29:00,
2013-06-01 07:34:00,74.3,70.5,30.14,ESE,106,0.0,0.0,88,0.00,NA,NA,-99.99,VWS Version 10.38,2013-06-01 11:34:00,
2013-06-01 07:44:00,78.3,71.6,30.14,ESE,105,0.0,0.0,80,0.00,NA,NA,-99.99,VWS Version 10.38,2013-06-01 11:44:00,
2013-06-01 07:49:00,79.2,69.4,30.14,ESE,105,0.0,0.0,72,0.00,NA,NA,-99.99,VWS Version 10.38,2013-06-01 11:49:00,
2013-06-01 07:59:00,81.0,62.8,30.14,ESE,105,0.0,0.0,54,0.00,NA,NA,-99.99,VWS Version 10.38,2013-06-01 11:59:00,
2013-06-01 08:04:00,81.5,61.7,30.14,NW,313,0.0,0.0,51,0.00,NA,NA,-99.99,VWS Version 10.38,2013-06-01 12:04:00,
2013-06-01 08:14:00,83.1,59.6,30.14,SW,230,3.1,3.1,45,0.00,NA,NA,-99.99,VWS Version 10.38,2013-06-01 12:14:00,
2013-06-01 08:19:00,83.5,59.3,30.14,SW,236,0.0,0.0,44,0.00,NA,NA,-99.99,VWS Version 10.38,2013-06-01 12:19:00,
2013-06-01 08:29:00,84.2,58.6,30.14,WNW,298,0.0,0.0,42,0.00,NA,NA,-99.99,VWS Version 10.38,2013-06-01 12:29:00,
2013-06-01 08:34:00,84.4,58.1,30.14,ESE,112,3.6,3.6,41,0.00,NA,NA,-99.99,VWS Version 10.38,2013-06-01 12:34:00,
2013-06-01 08:44:00,85.1,57.4,30.14,SSW,211,3.1,3.1,39,0.00,NA,NA,-99.99,VWS Version 10.38,2013-06-01 12:44:00,
2013-06-01 08:49:00,85.1,57.4,30.14,South,177,3.1,3.1,39,0.00,NA,NA,-99.99,VWS Version 10.38,2013-06-01 12:49:00,
2013-06-01 08:59:00,85.8,57.3,30.14,SSW,211,3.6,3.6,38,0.00,NA,NA,-99.99,VWS Version 10.38,2013-06-01 12:59:00,
2013-06-01 09:04:00,86.2,56.1,30.14,SW,232,3.1,3.1,36,0.00,NA,NA,-99.99,VWS Version 10.38,2013-06-01 13:04:00,
2013-06-01 09:14:00,86.5,55.7,30.14,NNW,327,5.4,5.4,35,0.00,NA,NA,-99.99,VWS Version 10.38,2013-06-01 13:14:00,
2013-06-01 09:20:00,86.9,56.8,30.14,WNW,297,2.7,2.7,36,0.00,NA,NA,-99.99,VWS Version 10.38,2013-06-01 13:20:00,
2013-06-01 09:30:00,87.4,56.5,30.14,ESE,116,2.7,2.7,35,0.00,NA,NA,-99.99,VWS Version 10.38,2013-06-01 13:30:00,
2013-06-01 09:35:00,87.4,55.7,30.14,SW,219,3.6,3.6,34,0.00,NA,NA,-99.99,VWS Version 10.38,2013-06-01 13:35:00,
2013-06-01 09:45:00,87.8,56.0,30.14,WNW,301,4.0,4.0,34,0.00,NA,NA,-99.99,VWS Version 10.38,2013-06-01 13:45:00,
2013-06-01 09:50:00,88.2,56.3,30.14,WNW,301,4.0,4.0,34,0.00,NA,NA,-99.99,VWS Version 10.38,2013-06-01 13:50:00,
2013-06-01 09:55:00,88.7,56.8,30.14,SW,220,2.7,2.7,34,0.00,NA,NA,-99.99,VWS Version 10.38,2013-06-01 13:55:00,
2013-06-01 10:04:00,88.9,55.2,30.14,SW,219,4.0,4.0,32,0.00,NA,NA,-99.99,VWS Version 10.38,2013-06-01 14:04:00,
2013-06-01 10:09:00,88.9,55.2,30.11,SSE,150,2.7,2.7,32,0.00,NA,NA,-99.99,VWS Version 10.38,2013-06-01 14:09:00,
2013-06-01 10:19:00,89.1,55.4,30.11,SSW,208,3.1,3.1,32,0.00,NA,NA,-99.99,VWS Version 10.38,2013-06-01 14:19:00,
2013-06-01 10:24:00,89.1,55.4,30.11,NW,314,6.3,6.3,32,0.00,NA,NA,-99.99,VWS Version 10.38,2013-06-01 14:24:00,
2013-06-01 10:34:00,89.1,55.4,30.11,SW,231,5.4,5.4,32,0.00,NA,NA,-99.99,VWS Version 10.38,2013-06-01 14:34:00,
2013-06-01 10:44:00,88.9,53.5,30.11,South,177,2.7,2.7,30,0.00,NA,NA,-99.99,VWS Version 10.38,2013-06-01 14:44:00,
2013-06-01 10:49:00,88.9,54.4,30.11,WSW,249,4.0,4.0,31,0.00,NA,NA,-99.99,VWS Version 10.38,2013-06-01 14:49:00,
2013-06-01 10:54:00,88.9,54.4,30.11,SW,231,5.8,5.8,31,0.00,NA,NA,-99.99,VWS Version 10.38,2013-06-01 14:54:00,
2013-06-01 11:04:00,89.6,54.1,30.11,ESE,110,3.6,3.6,30,0.00,NA,NA,-99.99,VWS Version 10.38,2013-06-01 15:04:00,
2013-06-01 11:09:00,90.0,55.3,30.11,SW,223,3.6,3.6,31,0.00,NA,NA,-99.99,VWS Version 10.38,2013-06-01 15:09:00,
2013-06-01 11:19:00,90.0,53.5,30.11,NW,306,3.1,3.1,29,0.00,NA,NA,-99.99,VWS Version 10.38,2013-06-01 15:19:00,
2013-06-01 11:24:00,90.0,53.5,30.11,SE,145,4.0,4.0,29,0.00,NA,NA,-99.99,VWS Version 10.38,2013-06-01 15:24:00,
2013-06-01 11:34:00,90.0,52.5,30.11,SW,220,5.8,5.8,28,0.00,NA,NA,-99.99,VWS Version 10.38,2013-06-01 15:34:00,
2013-06-01 11:39:00,89.8,52.4,30.11,WNW,298,5.8,5.8,28,0.00,NA,NA,-99.99,VWS Version 10.38,2013-06-01 15:39:00,
2013-06-01 11:49:00,90.3,53.8,30.11,WNW,294,5.4,5.4,29,0.00,NA,NA,-99.99,VWS Version 10.38,2013-06-01 15:49:00,
2013-06-01 11:54:00,90.3,52.8,30.11,South,184,2.2,2.2,28,0.00,NA,NA,-99.99,VWS Version 10.38,2013-06-01 15:54:00,
2013-06-01 12:04:00,90.3,52.8,30.11,WSW,239,3.1,3.1,28,0.00,NA,NA,-99.99,VWS Version 10.38,2013-06-01 16:04:00,
2013-06-01 12:09:00,90.7,53.1,30.11,SSW,202,4.0,4.0,28,0.00,NA,NA,-99.99,VWS Version 10.38,2013-06-01 16:09:00,
2013-06-01 12:19:00,90.5,53.0,30.11,ESE,123,4.0,4.0,28,0.00,NA,NA,-99.99,VWS Version 10.38,2013-06-01 16:19:00,
2013-06-01 12:30:00,91.0,53.4,30.08,SW,222,3.6,3.6,28,0.00,NA,NA,-99.99,VWS Version 10.38,2013-06-01 16:30:00,
2013-06-01 12:35:00,90.9,53.3,30.08,SW,233,3.6,3.6,28,0.00,NA,NA,-99.99,VWS Version 10.38,2013-06-01 16:35:00,
2013-06-01 12:40:00,91.0,53.4,30.08,East,91,3.1,3.1,28,0.00,NA,NA,-99.99,VWS Version 10.38,2013-06-01 16:40:00,
2013-06-01 12:45:00,91.2,54.5,30.08,NNE,14,3.6,3.6,29,0.00,NA,NA,-99.99,VWS Version 10.38,2013-06-01 16:45:00,
2013-06-01 12:50:00,91.6,52.9,30.08,West,271,5.4,5.4,27,0.00,NA,NA,-99.99,VWS Version 10.38,2013-06-01 16:50:00,
2013-06-01 13:00:00,91.6,53.9,30.08,SW,227,4.0,4.0,28,0.00,NA,NA,-99.99,VWS Version 10.38,2013-06-01 17:00:00,
2013-06-01 13:05:00,91.4,51.7,30.08,South,183,3.6,3.6,26,0.00,NA,NA,-99.99,VWS Version 10.38,2013-06-01 17:05:00,
2013-06-01 13:10:00,91.2,52.6,30.08,SW,227,4.0,4.0,27,0.00,NA,NA,-99.99,VWS Version 10.38,2013-06-01 17:10:00,
2013-06-01 13:15:00,91.6,52.9,30.08,ESE,123,2.2,2.2,27,0.00,NA,NA,-99.99,VWS Version 10.38,2013-06-01 17:15:00,
2013-06-01 13:20:00,91.6,52.9,30.08,WSW,255,4.0,4.0,27,0.00,NA,NA,-99.99,VWS Version 10.38,2013-06-01 17:20:00,
2013-06-01 13:30:00,91.2,53.6,30.08,ESE,115,7.6,7.6,28,0.00,NA,NA,-99.99,VWS Version 10.38,2013-06-01 17:30:00,
2013-06-01 13:35:00,91.2,52.6,30.08,WNW,283,4.0,4.0,27,0.00,NA,NA,-99.99,VWS Version 10.38,2013-06-01 17:35:00,
2013-06-01 13:40:00,91.0,52.5,30.08,SE,143,2.7,2.7,27,0.00,NA,NA,-99.99,VWS Version 10.38,2013-06-01 17:40:00,
2013-06-01 13:45:00,91.2,52.6,30.08,SSW,205,3.1,3.1,27,0.00,NA,NA,-99.99,VWS Version 10.38,2013-06-01 17:45:00,